Terminal Aerodrome Forecast
Issued by NWS Detroit/Pontiac, MI

Home | Current Version | Previous Version | Text Only | Print | Product List | Glossary On
Versions: 1 2 3 4 5 6 7 8 9 10 11 12 13 14 15 16 17 18 19 20 21 22 23 24 25 26 27 28
000
FTUS43 KDTX 290310 AAA
TAFDTW
TAF AMD
KDTW 290310Z 2903/3006 03005KT 6SM BR SCT200
     FM290700 VRB03KT 4SM BR SCT008
      TEMPO 2909/2913 2SM BR BKN008
     FM291400 04005KT P6SM SCT020
     FM291600 06005KT P6SM SCT040
     FM292000 04005KT P6SM SKC
     FM300100 VRB03KT P6SM BKN250=

USA.gov is the U.S. government's official web portal to all federal, state and local government web resources and services.